sensor_id;sensor_type;location;lat;lon;timestamp;temperature;humidity
31309;DHT22;17936;52.446;10.840;2023-05-29T00:01:33;13.50;99.90
31309;DHT22;17936;52.446;10.840;2023-05-29T00:04:01;13.50;99.90
31309;DHT22;17936;52.446;10.840;2023-05-29T00:06:26;13.50;99.90
31309;DHT22;17936;52.446;10.840;2023-05-29T00:08:52;13.70;99.90
31309;DHT22;17936;52.446;10.840;2023-05-29T00:11:18;13.70;99.90
31309;DHT22;17936;52.446;10.840;2023-05-29T00:13:43;13.50;99.90
31309;DHT22;17936;52.446;10.840;2023-05-29T00:16:09;13.50;99.90
31309;DHT22;17936;52.446;10.840;2023-05-29T00:18:35;13.60;99.90
31309;DHT22;17936;52.446;10.840;2023-05-29T00:21:01;13.50;99.90
31309;DHT22;17936;52.446;10.840;2023-05-29T00:23:27;13.40;99.90
31309;DHT22;17936;52.446;10.840;2023-05-29T00:25:52;13.20;99.90
31309;DHT22;17936;52.446;10.840;2023-05-29T00:28:18;13.20;99.90
31309;DHT22;17936;52.446;10.840;2023-05-29T00:30:44;12.90;99.90
31309;DHT22;17936;52.446;10.840;2023-05-29T00:33:09;12.90;99.90
31309;DHT22;17936;52.446;10.840;2023-05-29T00:35:35;12.90;99.90
31309;DHT22;17936;52.446;10.840;2023-05-29T00:38:01;12.90;99.90
31309;DHT22;17936;52.446;10.840;2023-05-29T00:40:26;13.00;99.90
31309;DHT22;17936;52.446;10.840;2023-05-29T00:42:52;12.90;99.90
31309;DHT22;17936;52.446;10.840;2023-05-29T00:45:17;13.00;99.90
31309;DHT22;17936;52.446;10.840;2023-05-29T00:47:43;12.80;99.90
31309;DHT22;17936;52.446;10.840;2023-05-29T00:50:10;12.70;99.90
31309;DHT22;17936;52.446;10.840;2023-05-29T00:52:37;12.70;99.90
31309;DHT22;17936;52.446;10.840;2023-05-29T00:55:03;12.70;99.90
31309;DHT22;17936;52.446;10.840;2023-05-29T00:57:30;12.90;99.90
31309;DHT22;17936;52.446;10.840;2023-05-29T00:59:57;12.90;99.90
31309;DHT22;17936;52.446;10.840;2023-05-29T01:02:23;12.80;99.90
31309;DHT22;17936;52.446;10.840;2023-05-29T01:04:50;12.80;99.90
31309;DHT22;17936;52.446;10.840;2023-05-29T01:07:19;12.70;99.90
31309;DHT22;17936;52.446;10.840;2023-05-29T01:09:45;12.60;99.90
31309;DHT22;17936;52.446;10.840;2023-05-29T01:12:35;12.70;99.90
31309;DHT22;17936;52.446;10.840;2023-05-29T01:20:33;12.70;99.90
31309;DHT22;17936;52.446;10.840;2023-05-29T01:23:14;12.60;99.90
31309;DHT22;17936;52.446;10.840;2023-05-29T01:28:34;12.40;99.90
31309;DHT22;17936;52.446;10.840;2023-05-29T01:31:04;12.30;99.90
31309;DHT22;17936;52.446;10.840;2023-05-29T01:33:29;12.60;99.90
31309;DHT22;17936;52.446;10.840;2023-05-29T01:35:55;12.60;99.90
31309;DHT22;17936;52.446;10.840;2023-05-29T01:38:20;12.60;99.90
31309;DHT22;17936;52.446;10.840;2023-05-29T01:40:47;12.60;99.90
31309;DHT22;17936;52.446;10.840;2023-05-29T01:43:13;12.40;99.90
31309;DHT22;17936;52.446;10.840;2023-05-29T01:45:39;12.40;99.90
31309;DHT22;17936;52.446;10.840;2023-05-29T01:48:06;12.50;99.90
31309;DHT22;17936;52.446;10.840;2023-05-29T01:50:32;12.50;99.90
31309;DHT22;17936;52.446;10.840;2023-05-29T01:52:57;12.40;99.90
31309;DHT22;17936;52.446;10.840;2023-05-29T01:55:23;12.30;99.90
31309;DHT22;17936;52.446;10.840;2023-05-29T01:57:49;12.20;99.90
31309;DHT22;17936;52.446;10.840;2023-05-29T02:00:17;12.40;99.90
31309;DHT22;17936;52.446;10.840;2023-05-29T02:02:42;12.40;99.90
31309;DHT22;17936;52.446;10.840;2023-05-29T02:05:08;12.10;99.90
31309;DHT22;17936;52.446;10.840;2023-05-29T02:07:35;12.30;99.90
31309;DHT22;17936;52.446;10.840;2023-05-29T02:10:03;12.10;99.90
31309;DHT22;17936;52.446;10.840;2023-05-29T02:12:28;12.00;99.90
31309;DHT22;17936;52.446;10.840;2023-05-29T02:14:54;11.90;99.90
31309;DHT22;17936;52.446;10.840;2023-05-29T02:17:19;11.80;99.90
31309;DHT22;17936;52.446;10.840;2023-05-29T02:19:45;11.80;99.90
31309;DHT22;17936;52.446;10.840;2023-05-29T02:22:11;12.00;99.90
31309;DHT22;17936;52.446;10.840;2023-05-29T02:24:37;12.10;99.90
31309;DHT22;17936;52.446;10.840;2023-05-29T02:27:02;11.80;99.90
31309;DHT22;17936;52.446;10.840;2023-05-29T02:29:28;12.00;99.90
31309;DHT22;17936;52.446;10.840;2023-05-29T02:31:54;11.80;99.90
31309;DHT22;17936;52.446;10.840;2023-05-29T02:34:19;11.80;99.90
31309;DHT22;17936;52.446;10.840;2023-05-29T02:36:48;11.80;99.90
31309;DHT22;17936;52.446;10.840;2023-05-29T02:39:14;11.80;99.90
31309;DHT22;17936;52.446;10.840;2023-05-29T02:41:39;11.80;99.90
31309;DHT22;17936;52.446;10.840;2023-05-29T02:44:05;11.80;99.90
31309;DHT22;17936;52.446;10.840;2023-05-29T02:46:30;11.80;99.90
31309;DHT22;17936;52.446;10.840;2023-05-29T02:48:56;11.70;99.90
31309;DHT22;17936;52.446;10.840;2023-05-29T02:51:21;11.70;99.90
31309;DHT22;17936;52.446;10.840;2023-05-29T02:53:47;11.80;99.90
31309;DHT22;17936;52.446;10.840;2023-05-29T02:56:14;11.80;99.90
31309;DHT22;17936;52.446;10.840;2023-05-29T02:58:41;11.80;99.90
31309;DHT22;17936;52.446;10.840;2023-05-29T03:01:06;11.50;99.90
31309;DHT22;17936;52.446;10.840;2023-05-29T03:03:33;11.70;99.90
31309;DHT22;17936;52.446;10.840;2023-05-29T03:05:58;11.60;99.90
31309;DHT22;17936;52.446;10.840;2023-05-29T03:08:25;11.70;99.90
31309;DHT22;17936;52.446;10.840;2023-05-29T03:10:51;11.50;99.90
31309;DHT22;17936;52.446;10.840;2023-05-29T03:13:17;11.60;99.90
31309;DHT22;17936;52.446;10.840;2023-05-29T03:15:44;11.60;99.90
31309;DHT22;17936;52.446;10.840;2023-05-29T03:18:09;11.40;99.90
31309;DHT22;17936;52.446;10.840;2023-05-29T03:20:35;11.40;99.90
31309;DHT22;17936;52.446;10.840;2023-05-29T03:23:01;11.50;99.90
31309;DHT22;17936;52.446;10.840;2023-05-29T03:25:26;11.50;99.90
31309;DHT22;17936;52.446;10.840;2023-05-29T03:27:52;11.40;99.90
31309;DHT22;17936;52.446;10.840;2023-05-29T03:30:18;11.70;99.90
31309;DHT22;17936;52.446;10.840;2023-05-29T03:32:45;11.70;99.90
31309;DHT22;17936;52.446;10.840;2023-05-29T03:35:11;11.70;99.90
31309;DHT22;17936;52.446;10.840;2023-05-29T03:37:37;11.80;99.90
31309;DHT22;17936;52.446;10.840;2023-05-29T03:40:02;11.60;99.90
31309;DHT22;17936;52.446;10.840;2023-05-29T03:42:30;11.60;99.90
31309;DHT22;17936;52.446;10.840;2023-05-29T03:44:58;11.60;99.90
31309;DHT22;17936;52.446;10.840;2023-05-29T03:47:24;11.60;99.90
31309;DHT22;17936;52.446;10.840;2023-05-29T03:49:50;11.60;99.90
31309;DHT22;17936;52.446;10.840;2023-05-29T03:52:15;11.60;99.90
31309;DHT22;17936;52.446;10.840;2023-05-29T03:54:41;11.90;99.90
31309;DHT22;17936;52.446;10.840;2023-05-29T03:57:06;12.00;99.90
31309;DHT22;17936;52.446;10.840;2023-05-29T03:59:32;12.00;99.90
31309;DHT22;17936;52.446;10.840;2023-05-29T04:01:58;12.20;99.90
31309;DHT22;17936;52.446;10.840;2023-05-29T04:04:23;12.20;99.90
31309;DHT22;17936;52.446;10.840;2023-05-29T04:06:49;12.10;99.90
31309;DHT22;17936;52.446;10.840;2023-05-29T04:09:14;12.00;99.90
31309;DHT22;17936;52.446;10.840;2023-05-29T04:11:40;12.10;99.90
31309;DHT22;17936;52.446;10.840;2023-05-29T04:14:07;12.00;99.90
31309;DHT22;17936;52.446;10.840;2023-05-29T04:16:32;12.00;99.90
31309;DHT22;17936;52.446;10.840;2023-05-29T04:18:58;12.00;99.90
31309;DHT22;17936;52.446;10.840;2023-05-29T04:21:23;11.90;99.90
31309;DHT22;17936;52.446;10.840;2023-05-29T04:23:49;12.00;99.90
31309;DHT22;17936;52.446;10.840;2023-05-29T04:26:14;12.10;99.90
31309;DHT22;17936;52.446;10.840;2023-05-29T04:28:40;12.30;99.90
31309;DHT22;17936;52.446;10.840;2023-05-29T04:31:05;12.30;99.90
31309;DHT22;17936;52.446;10.840;2023-05-29T04:33:31;12.30;99.90
31309;DHT22;17936;52.446;10.840;2023-05-29T04:35:58;12.20;99.90
31309;DHT22;17936;52.446;10.840;2023-05-29T04:38:26;12.30;99.90
31309;DHT22;17936;52.446;10.840;2023-05-29T04:40:52;12.20;99.90
31309;DHT22;17936;52.446;10.840;2023-05-29T04:43:22;12.20;99.90
31309;DHT22;17936;52.446;10.840;2023-05-29T04:45:48;12.20;99.90
31309;DHT22;17936;52.446;10.840;2023-05-29T04:48:14;12.20;99.90
31309;DHT22;17936;52.446;10.840;2023-05-29T04:50:39;12.30;99.90
31309;DHT22;17936;52.446;10.840;2023-05-29T04:53:05;12.40;99.90
31309;DHT22;17936;52.446;10.840;2023-05-29T04:55:31;12.60;99.90
31309;DHT22;17936;52.446;10.840;2023-05-29T04:57:56;12.90;99.90
31309;DHT22;17936;52.446;10.840;2023-05-29T05:00:22;13.10;99.90
31309;DHT22;17936;52.446;10.840;2023-05-29T05:02:49;13.20;99.90
31309;DHT22;17936;52.446;10.840;2023-05-29T05:05:14;13.40;99.90
31309;DHT22;17936;52.446;10.840;2023-05-29T05:07:40;13.30;99.90
31309;DHT22;17936;52.446;10.840;2023-05-29T05:10:06;13.30;99.90
31309;DHT22;17936;52.446;10.840;2023-05-29T05:12:32;13.40;99.90
31309;DHT22;17936;52.446;10.840;2023-05-29T05:14:58;13.70;99.90
31309;DHT22;17936;52.446;10.840;2023-05-29T05:17:23;13.80;99.90
31309;DHT22;17936;52.446;10.840;2023-05-29T05:19:49;13.80;99.90
31309;DHT22;17936;52.446;10.840;2023-05-29T05:22:15;13.80;99.90
31309;DHT22;17936;52.446;10.840;2023-05-29T05:24:41;13.70;99.90
31309;DHT22;17936;52.446;10.840;2023-05-29T05:27:07;13.80;99.90
31309;DHT22;17936;52.446;10.840;2023-05-29T05:29:32;14.20;99.90
31309;DHT22;17936;52.446;10.840;2023-05-29T05:31:58;14.00;99.90
31309;DHT22;17936;52.446;10.840;2023-05-29T05:34:23;14.10;99.90
31309;DHT22;17936;52.446;10.840;2023-05-29T05:36:49;14.50;99.90
31309;DHT22;17936;52.446;10.840;2023-05-29T05:39:15;14.20;99.90
31309;DHT22;17936;52.446;10.840;2023-05-29T05:41:40;14.20;99.90
31309;DHT22;17936;52.446;10.840;2023-05-29T05:44:06;14.30;99.90
31309;DHT22;17936;52.446;10.840;2023-05-29T05:46:31;14.30;99.90
31309;DHT22;17936;52.446;10.840;2023-05-29T05:48:57;14.40;99.90
31309;DHT22;17936;52.446;10.840;2023-05-29T05:51:23;14.70;99.90
31309;DHT22;17936;52.446;10.840;2023-05-29T05:53:49;14.40;99.90
31309;DHT22;17936;52.446;10.840;2023-05-29T05:56:15;14.60;99.90
31309;DHT22;17936;52.446;10.840;2023-05-29T05:58:40;15.20;99.90
31309;DHT22;17936;52.446;10.840;2023-05-29T06:01:07;15.50;99.90
31309;DHT22;17936;52.446;10.840;2023-05-29T06:03:33;15.20;99.90
31309;DHT22;17936;52.446;10.840;2023-05-29T06:05:59;15.00;99.90
31309;DHT22;17936;52.446;10.840;2023-05-29T06:08:25;14.60;99.90
31309;DHT22;17936;52.446;10.840;2023-05-29T06:10:51;15.10;99.90
31309;DHT22;17936;52.446;10.840;2023-05-29T06:13:16;15.00;99.90
31309;DHT22;17936;52.446;10.840;2023-05-29T06:15:43;15.10;99.90
31309;DHT22;17936;52.446;10.840;2023-05-29T06:18:08;15.60;99.90
31309;DHT22;17936;52.446;10.840;2023-05-29T06:20:34;15.60;99.90
31309;DHT22;17936;52.446;10.840;2023-05-29T06:23:00;15.50;99.90
31309;DHT22;17936;52.446;10.840;2023-05-29T06:25:26;15.70;99.90
31309;DHT22;17936;52.446;10.840;2023-05-29T06:28:01;16.00;99.90
31309;DHT22;17936;52.446;10.840;2023-05-29T06:30:27;16.10;99.90
31309;DHT22;17936;52.446;10.840;2023-05-29T06:32:53;15.60;99.90
31309;DHT22;17936;52.446;10.840;2023-05-29T06:35:18;16.00;99.90
31309;DHT22;17936;52.446;10.840;2023-05-29T06:37:45;16.20;99.90
31309;DHT22;17936;52.446;10.840;2023-05-29T06:40:12;16.70;99.90
31309;DHT22;17936;52.446;10.840;2023-05-29T06:42:37;16.60;99.90
31309;DHT22;17936;52.446;10.840;2023-05-29T06:45:03;16.90;99.90
31309;DHT22;17936;52.446;10.840;2023-05-29T06:47:29;17.00;99.90
31309;DHT22;17936;52.446;10.840;2023-05-29T06:49:54;17.50;99.90
31309;DHT22;17936;52.446;10.840;2023-05-29T06:52:20;17.00;99.90
31309;DHT22;17936;52.446;10.840;2023-05-29T06:54:45;17.20;99.90
31309;DHT22;17936;52.446;10.840;2023-05-29T06:57:11;17.00;99.90
31309;DHT22;17936;52.446;10.840;2023-05-29T06:59:37;16.80;99.90
31309;DHT22;17936;52.446;10.840;2023-05-29T07:02:03;17.20;99.90
31309;DHT22;17936;52.446;10.840;2023-05-29T07:04:28;17.60;99.90
31309;DHT22;17936;52.446;10.840;2023-05-29T07:06:54;17.80;99.90
31309;DHT22;17936;52.446;10.840;2023-05-29T07:09:19;17.10;99.90
31309;DHT22;17936;52.446;10.840;2023-05-29T07:11:45;16.70;99.90
31309;DHT22;17936;52.446;10.840;2023-05-29T07:14:11;17.30;99.90
31309;DHT22;17936;52.446;10.840;2023-05-29T07:16:36;17.70;99.90
31309;DHT22;17936;52.446;10.840;2023-05-29T07:19:02;17.80;99.90
31309;DHT22;17936;52.446;10.840;2023-05-29T07:21:27;17.70;99.90
31309;DHT22;17936;52.446;10.840;2023-05-29T07:23:53;17.60;99.90
31309;DHT22;17936;52.446;10.840;2023-05-29T07:26:18;17.50;99.90
31309;DHT22;17936;52.446;10.840;2023-05-29T07:28:44;16.60;99.90
31309;DHT22;17936;52.446;10.840;2023-05-29T07:31:09;16.70;99.90
31309;DHT22;17936;52.446;10.840;2023-05-29T07:33:35;16.40;99.90
31309;DHT22;17936;52.446;10.840;2023-05-29T07:36:01;17.00;99.90
31309;DHT22;17936;52.446;10.840;2023-05-29T07:38:26;17.20;99.90
31309;DHT22;17936;52.446;10.840;2023-05-29T07:40:52;17.00;99.90
31309;DHT22;17936;52.446;10.840;2023-05-29T07:43:17;16.80;99.90
31309;DHT22;17936;52.446;10.840;2023-05-29T07:45:43;16.80;99.90
31309;DHT22;17936;52.446;10.840;2023-05-29T07:48:08;17.80;99.90
31309;DHT22;17936;52.446;10.840;2023-05-29T07:50:34;18.40;99.90
31309;DHT22;17936;52.446;10.840;2023-05-29T07:53:00;18.70;99.90
31309;DHT22;17936;52.446;10.840;2023-05-29T07:55:25;18.70;99.90
31309;DHT22;17936;52.446;10.840;2023-05-29T07:57:51;19.10;99.90
31309;DHT22;17936;52.446;10.840;2023-05-29T08:00:16;18.80;99.90
31309;DHT22;17936;52.446;10.840;2023-05-29T08:02:42;18.70;99.90
31309;DHT22;17936;52.446;10.840;2023-05-29T08:05:09;18.50;99.90
31309;DHT22;17936;52.446;10.840;2023-05-29T08:07:36;18.60;99.90
31309;DHT22;17936;52.446;10.840;2023-05-29T08:10:01;19.10;99.90
31309;DHT22;17936;52.446;10.840;2023-05-29T08:12:27;19.00;99.90
31309;DHT22;17936;52.446;10.840;2023-05-29T08:14:53;19.00;99.90
31309;DHT22;17936;52.446;10.840;2023-05-29T08:17:18;18.50;99.90
31309;DHT22;17936;52.446;10.840;2023-05-29T08:19:44;19.00;99.90
31309;DHT22;17936;52.446;10.840;2023-05-29T08:22:12;18.80;99.90
31309;DHT22;17936;52.446;10.840;2023-05-29T08:24:39;18.50;99.90
31309;DHT22;17936;52.446;10.840;2023-05-29T08:27:05;19.30;99.90
31309;DHT22;17936;52.446;10.840;2023-05-29T08:29:30;19.20;99.90
31309;DHT22;17936;52.446;10.840;2023-05-29T08:31:56;18.50;99.90
31309;DHT22;17936;52.446;10.840;2023-05-29T08:34:21;18.80;99.90
31309;DHT22;17936;52.446;10.840;2023-05-29T08:36:47;19.40;99.90
31309;DHT22;17936;52.446;10.840;2023-05-29T08:39:14;19.60;99.90
31309;DHT22;17936;52.446;10.840;2023-05-29T08:41:59;19.30;99.90
31309;DHT22;17936;52.446;10.840;2023-05-29T08:44:29;19.00;99.90
31309;DHT22;17936;52.446;10.840;2023-05-29T08:46:55;19.60;99.90
31309;DHT22;17936;52.446;10.840;2023-05-29T08:49:21;19.30;99.90
31309;DHT22;17936;52.446;10.840;2023-05-29T08:51:51;19.10;99.90
31309;DHT22;17936;52.446;10.840;2023-05-29T08:54:18;20.00;99.90
31309;DHT22;17936;52.446;10.840;2023-05-29T08:56:43;20.00;99.90
31309;DHT22;17936;52.446;10.840;2023-05-29T08:59:09;20.60;99.90
31309;DHT22;17936;52.446;10.840;2023-05-29T09:01:38;19.80;99.90
31309;DHT22;17936;52.446;10.840;2023-05-29T09:04:04;19.90;99.90
31309;DHT22;17936;52.446;10.840;2023-05-29T09:06:30;20.30;99.90
31309;DHT22;17936;52.446;10.840;2023-05-29T09:08:56;20.50;99.90
31309;DHT22;17936;52.446;10.840;2023-05-29T09:11:23;20.20;99.90
31309;DHT22;17936;52.446;10.840;2023-05-29T09:13:48;20.80;99.90
31309;DHT22;17936;52.446;10.840;2023-05-29T09:16:16;20.20;99.90
31309;DHT22;17936;52.446;10.840;2023-05-29T09:18:42;20.20;99.90
31309;DHT22;17936;52.446;10.840;2023-05-29T09:21:27;21.10;99.90
31309;DHT22;17936;52.446;10.840;2023-05-29T09:23:54;21.30;99.40
31309;DHT22;17936;52.446;10.840;2023-05-29T09:26:21;20.90;99.90
31309;DHT22;17936;52.446;10.840;2023-05-29T09:28:48;20.90;99.20
31309;DHT22;17936;52.446;10.840;2023-05-29T09:31:15;21.20;98.70
31309;DHT22;17936;52.446;10.840;2023-05-29T09:33:49;21.30;98.00
31309;DHT22;17936;52.446;10.840;2023-05-29T09:36:23;20.80;98.60
31309;DHT22;17936;52.446;10.840;2023-05-29T09:38:50;21.10;99.60
31309;DHT22;17936;52.446;10.840;2023-05-29T09:41:23;21.30;98.10
31309;DHT22;17936;52.446;10.840;2023-05-29T09:43:49;21.60;99.10
31309;DHT22;17936;52.446;10.840;2023-05-29T09:46:15;21.90;97.40
31309;DHT22;17936;52.446;10.840;2023-05-29T09:48:44;21.60;97.30
31309;DHT22;17936;52.446;10.840;2023-05-29T09:51:23;22.10;95.80
31309;DHT22;17936;52.446;10.840;2023-05-29T09:53:49;21.30;94.80
31309;DHT22;17936;52.446;10.840;2023-05-29T09:56:19;21.30;94.30
31309;DHT22;17936;52.446;10.840;2023-05-29T09:58:48;21.30;94.60
31309;DHT22;17936;52.446;10.840;2023-05-29T10:01:14;21.90;94.20
31309;DHT22;17936;52.446;10.840;2023-05-29T10:03:41;21.40;94.10
31309;DHT22;17936;52.446;10.840;2023-05-29T10:06:13;21.20;94.70
31309;DHT22;17936;52.446;10.840;2023-05-29T10:08:46;21.00;94.10
31309;DHT22;17936;52.446;10.840;2023-05-29T10:11:20;21.80;94.00
31309;DHT22;17936;52.446;10.840;2023-05-29T10:13:52;22.40;92.10
31309;DHT22;17936;52.446;10.840;2023-05-29T10:16:21;21.50;93.20
31309;DHT22;17936;52.446;10.840;2023-05-29T10:18:53;21.70;93.10
31309;DHT22;17936;52.446;10.840;2023-05-29T10:21:24;21.60;93.10
31309;DHT22;17936;52.446;10.840;2023-05-29T10:23:51;22.20;93.40
31309;DHT22;17936;52.446;10.840;2023-05-29T10:26:21;22.50;92.00
31309;DHT22;17936;52.446;10.840;2023-05-29T10:29:02;21.50;92.60
31309;DHT22;17936;52.446;10.840;2023-05-29T10:31:38;22.00;93.50
31309;DHT22;17936;52.446;10.840;2023-05-29T10:34:18;22.10;93.20
31309;DHT22;17936;52.446;10.840;2023-05-29T10:36:56;22.40;92.10
31309;DHT22;17936;52.446;10.840;2023-05-29T10:39:27;21.50;91.40
31309;DHT22;17936;52.446;10.840;2023-05-29T10:41:53;21.80;91.20
31309;DHT22;17936;52.446;10.840;2023-05-29T10:44:41;21.70;91.30
31309;DHT22;17936;52.446;10.840;2023-05-29T10:47:07;21.90;91.30
31309;DHT22;17936;52.446;10.840;2023-05-29T10:49:34;21.70;91.30
31309;DHT22;17936;52.446;10.840;2023-05-29T10:51:59;22.40;91.00
31309;DHT22;17936;52.446;10.840;2023-05-29T10:54:26;22.60;90.50
31309;DHT22;17936;52.446;10.840;2023-05-29T10:56:56;22.30;90.20
31309;DHT22;17936;52.446;10.840;2023-05-29T10:59:22;22.30;90.90
31309;DHT22;17936;52.446;10.840;2023-05-29T11:01:53;22.70;89.70
31309;DHT22;17936;52.446;10.840;2023-05-29T11:06:50;21.90;90.10
31309;DHT22;17936;52.446;10.840;2023-05-29T11:12:22;22.30;89.90
31309;DHT22;17936;52.446;10.840;2023-05-29T11:15:11;22.30;90.30
31309;DHT22;17936;52.446;10.840;2023-05-29T11:20:27;21.50;90.80
31309;DHT22;17936;52.446;10.840;2023-05-29T11:25:25;20.70;91.60
31309;DHT22;17936;52.446;10.840;2023-05-29T11:27:51;22.10;90.90
31309;DHT22;17936;52.446;10.840;2023-05-29T11:30:18;21.80;90.10
31309;DHT22;17936;52.446;10.840;2023-05-29T11:32:45;22.50;90.10
31309;DHT22;17936;52.446;10.840;2023-05-29T11:35:12;22.40;88.50
31309;DHT22;17936;52.446;10.840;2023-05-29T11:37:40;21.10;90.80
31309;DHT22;17936;52.446;10.840;2023-05-29T11:40:08;20.90;90.40
31309;DHT22;17936;52.446;10.840;2023-05-29T11:42:35;21.70;89.90
31309;DHT22;17936;52.446;10.840;2023-05-29T11:47:59;22.60;85.40
31309;DHT22;17936;52.446;10.840;2023-05-29T11:50:26;22.60;85.80
31309;DHT22;17936;52.446;10.840;2023-05-29T11:52:52;22.40;82.80
31309;DHT22;17936;52.446;10.840;2023-05-29T11:55:19;22.70;84.20
31309;DHT22;17936;52.446;10.840;2023-05-29T11:57:46;23.00;85.00
31309;DHT22;17936;52.446;10.840;2023-05-29T12:00:14;22.90;85.70
31309;DHT22;17936;52.446;10.840;2023-05-29T12:02:39;22.50;90.00
31309;DHT22;17936;52.446;10.840;2023-05-29T12:05:07;23.00;84.60
31309;DHT22;17936;52.446;10.840;2023-05-29T12:07:33;23.50;85.80
31309;DHT22;17936;52.446;10.840;2023-05-29T12:10:12;22.80;84.80
31309;DHT22;17936;52.446;10.840;2023-05-29T12:12:38;21.80;85.60
31309;DHT22;17936;52.446;10.840;2023-05-29T12:15:05;22.00;86.00
31309;DHT22;17936;52.446;10.840;2023-05-29T12:17:32;22.50;84.30
31309;DHT22;17936;52.446;10.840;2023-05-29T12:19:58;22.70;82.80
31309;DHT22;17936;52.446;10.840;2023-05-29T12:22:34;22.30;82.80
31309;DHT22;17936;52.446;10.840;2023-05-29T12:25:10;22.00;85.10
31309;DHT22;17936;52.446;10.840;2023-05-29T12:27:42;21.10;86.00
31309;DHT22;17936;52.446;10.840;2023-05-29T12:32:45;20.80;87.40
31309;DHT22;17936;52.446;10.840;2023-05-29T12:35:20;21.80;85.50
31309;DHT22;17936;52.446;10.840;2023-05-29T12:38:09;22.70;84.20
31309;DHT22;17936;52.446;10.840;2023-05-29T12:40:34;23.10;80.70
31309;DHT22;17936;52.446;10.840;2023-05-29T12:43:04;23.70;80.80
31309;DHT22;17936;52.446;10.840;2023-05-29T12:45:32;23.50;81.00
31309;DHT22;17936;52.446;10.840;2023-05-29T12:48:00;23.70;82.20
31309;DHT22;17936;52.446;10.840;2023-05-29T12:50:31;23.30;80.00
31309;DHT22;17936;52.446;10.840;2023-05-29T12:55:28;23.20;79.00
31309;DHT22;17936;52.446;10.840;2023-05-29T12:57:55;23.40;79.00
31309;DHT22;17936;52.446;10.840;2023-05-29T13:00:21;23.10;79.10
31309;DHT22;17936;52.446;10.840;2023-05-29T13:02:48;22.70;81.40
31309;DHT22;17936;52.446;10.840;2023-05-29T13:05:14;22.10;81.00
31309;DHT22;17936;52.446;10.840;2023-05-29T13:07:42;23.20;82.60
31309;DHT22;17936;52.446;10.840;2023-05-29T13:10:08;22.80;82.30
31309;DHT22;17936;52.446;10.840;2023-05-29T13:12:34;23.80;80.30
31309;DHT22;17936;52.446;10.840;2023-05-29T13:15:00;23.20;81.20
31309;DHT22;17936;52.446;10.840;2023-05-29T13:17:26;23.10;79.90
31309;DHT22;17936;52.446;10.840;2023-05-29T13:19:51;23.40;79.10
31309;DHT22;17936;52.446;10.840;2023-05-29T13:22:17;22.60;78.70
31309;DHT22;17936;52.446;10.840;2023-05-29T13:24:42;23.70;80.00
31309;DHT22;17936;52.446;10.840;2023-05-29T13:27:08;23.70;79.80
31309;DHT22;17936;52.446;10.840;2023-05-29T13:29:34;23.00;79.60
31309;DHT22;17936;52.446;10.840;2023-05-29T13:32:00;22.60;79.60
31309;DHT22;17936;52.446;10.840;2023-05-29T13:34:26;21.80;81.20
31309;DHT22;17936;52.446;10.840;2023-05-29T13:36:54;21.90;81.20
31309;DHT22;17936;52.446;10.840;2023-05-29T13:39:20;22.40;78.40
31309;DHT22;17936;52.446;10.840;2023-05-29T13:41:46;22.60;79.90
31309;DHT22;17936;52.446;10.840;2023-05-29T13:44:11;22.70;78.40
31309;DHT22;17936;52.446;10.840;2023-05-29T13:46:37;22.50;79.60
31309;DHT22;17936;52.446;10.840;2023-05-29T13:49:03;22.80;77.60
31309;DHT22;17936;52.446;10.840;2023-05-29T13:51:28;22.10;78.90
31309;DHT22;17936;52.446;10.840;2023-05-29T13:53:54;22.70;79.90
31309;DHT22;17936;52.446;10.840;2023-05-29T13:56:19;22.70;79.30
31309;DHT22;17936;52.446;10.840;2023-05-29T13:58:45;22.70;74.50
31309;DHT22;17936;52.446;10.840;2023-05-29T14:01:10;23.10;73.20
31309;DHT22;17936;52.446;10.840;2023-05-29T14:03:36;23.40;73.00
31309;DHT22;17936;52.446;10.840;2023-05-29T14:06:01;23.10;71.20
31309;DHT22;17936;52.446;10.840;2023-05-29T14:08:30;23.30;69.70
31309;DHT22;17936;52.446;10.840;2023-05-29T14:10:55;22.70;69.80
31309;DHT22;17936;52.446;10.840;2023-05-29T14:13:21;22.80;67.80
31309;DHT22;17936;52.446;10.840;2023-05-29T14:15:46;22.70;68.00
31309;DHT22;17936;52.446;10.840;2023-05-29T14:18:14;22.60;65.60
31309;DHT22;17936;52.446;10.840;2023-05-29T14:20:40;22.90;64.30
31309;DHT22;17936;52.446;10.840;2023-05-29T14:23:05;22.50;66.60
31309;DHT22;17936;52.446;10.840;2023-05-29T14:25:31;22.40;64.70
31309;DHT22;17936;52.446;10.840;2023-05-29T14:27:56;22.90;64.70
31309;DHT22;17936;52.446;10.840;2023-05-29T14:30:22;23.00;64.40
31309;DHT22;17936;52.446;10.840;2023-05-29T14:32:47;23.20;64.80
31309;DHT22;17936;52.446;10.840;2023-05-29T14:35:13;22.50;63.90
31309;DHT22;17936;52.446;10.840;2023-05-29T14:37:39;23.00;63.70
31309;DHT22;17936;52.446;10.840;2023-05-29T14:40:05;23.00;60.60
31309;DHT22;17936;52.446;10.840;2023-05-29T14:42:31;22.70;60.80
31309;DHT22;17936;52.446;10.840;2023-05-29T14:44:58;22.00;59.80
31309;DHT22;17936;52.446;10.840;2023-05-29T14:47:23;22.60;59.10
31309;DHT22;17936;52.446;10.840;2023-05-29T14:49:49;22.40;58.70
31309;DHT22;17936;52.446;10.840;2023-05-29T14:52:14;22.30;59.00
31309;DHT22;17936;52.446;10.840;2023-05-29T14:54:40;22.30;60.90
31309;DHT22;17936;52.446;10.840;2023-05-29T14:57:05;22.70;58.60
31309;DHT22;17936;52.446;10.840;2023-05-29T14:59:31;22.30;56.40
31309;DHT22;17936;52.446;10.840;2023-05-29T15:01:57;22.60;57.10
31309;DHT22;17936;52.446;10.840;2023-05-29T15:04:24;22.60;57.60
31309;DHT22;17936;52.446;10.840;2023-05-29T15:06:49;22.40;56.00
31309;DHT22;17936;52.446;10.840;2023-05-29T15:09:15;22.50;57.40
31309;DHT22;17936;52.446;10.840;2023-05-29T15:11:40;22.40;55.90
31309;DHT22;17936;52.446;10.840;2023-05-29T15:14:06;22.20;56.70
31309;DHT22;17936;52.446;10.840;2023-05-29T15:16:31;21.80;56.60
31309;DHT22;17936;52.446;10.840;2023-05-29T15:18:57;21.50;56.80
31309;DHT22;17936;52.446;10.840;2023-05-29T15:21:23;21.90;56.60
31309;DHT22;17936;52.446;10.840;2023-05-29T15:23:48;21.90;53.90
31309;DHT22;17936;52.446;10.840;2023-05-29T15:26:14;21.80;53.20
31309;DHT22;17936;52.446;10.840;2023-05-29T15:28:39;22.10;54.10
31309;DHT22;17936;52.446;10.840;2023-05-29T15:31:05;21.90;53.40
31309;DHT22;17936;52.446;10.840;2023-05-29T15:33:31;22.30;53.70
31309;DHT22;17936;52.446;10.840;2023-05-29T15:35:56;21.60;52.10
31309;DHT22;17936;52.446;10.840;2023-05-29T15:38:22;21.70;51.90
31309;DHT22;17936;52.446;10.840;2023-05-29T15:40:47;21.50;52.60